Time;durP1;ratioP1;P1;durP2;ratioP2;P2;SDS_P1;SDS_P2;PMS_P1;PMS_P2;Temp;Humidity;BMP_temperature;BMP_pressure;BME280_temperature;BME280_humidity;BME280_pressure;Samples;Min_cycle;Max_cycle;Signal;HPM_P1;HPM_P2
2021/04/11 00:01:41;;;;;;;1.90;1.80;;;20.40;69.80;;;;;;5105174;28;20029;-33
2021/04/11 00:04:07;;;;;;;1.80;1.70;;;20.40;69.70;;;;;;5105049;28;20419;-33
2021/04/11 00:06:34;;;;;;;1.70;1.60;;;20.40;69.70;;;;;;5110123;27;20016;-33
2021/04/11 00:09:00;;;;;;;1.77;1.67;;;20.40;69.70;;;;;;5125802;27;20028;-33
2021/04/11 00:11:26;;;;;;;1.83;1.73;;;20.40;69.60;;;;;;5125072;28;20058;-33
2021/04/11 00:13:54;;;;;;;1.58;1.48;;;20.40;69.50;;;;;;5125435;28;20027;-33
2021/04/11 00:16:20;;;;;;;1.73;1.60;;;20.40;69.50;;;;;;5107160;28;20059;-34
2021/04/11 00:18:46;;;;;;;1.80;1.70;;;20.40;69.40;;;;;;5125164;28;20111;-34
2021/04/11 00:21:12;;;;;;;1.88;1.77;;;20.40;69.40;;;;;;5124980;28;20023;-33
2021/04/11 00:23:38;;;;;;;1.75;1.65;;;20.40;69.30;;;;;;5126835;27;20050;-33
2021/04/11 00:26:05;;;;;;;1.63;1.52;;;20.40;69.30;;;;;;5125143;28;20083;-33
2021/04/11 00:28:31;;;;;;;1.87;1.70;;;20.40;69.20;;;;;;5125111;28;20035;-34
2021/04/11 00:30:58;;;;;;;1.70;1.60;;;20.40;69.20;;;;;;5124884;28;20053;-34
2021/04/11 00:33:33;;;;;;;1.60;1.50;;;20.40;69.20;;;;;;5106645;28;20038;-34
2021/04/11 00:36:04;;;;;;;1.58;1.48;;;20.40;69.20;;;;;;5124778;28;20041;-34
2021/04/11 00:38:31;;;;;;;1.80;1.67;;;20.40;69.20;;;;;;5125007;28;20015;-34
2021/04/11 00:40:59;;;;;;;1.73;1.63;;;20.40;69.20;;;;;;5121428;28;20024;-34
2021/04/11 00:43:25;;;;;;;1.58;1.48;;;20.40;69.30;;;;;;5119826;28;20049;-34
2021/04/11 00:46:07;;;;;;;1.60;1.50;;;20.40;69.20;;;;;;5104239;28;20028;-34
2021/04/11 00:48:33;;;;;;;1.70;1.60;;;20.40;69.20;;;;;;5104302;28;20284;-34
2021/04/11 00:51:07;;;;;;;1.60;1.50;;;20.40;69.20;;;;;;5085671;28;20109;-34
2021/04/11 00:53:33;;;;;;;1.48;1.38;;;20.40;69.20;;;;;;5134100;27;20036;-35
2021/04/11 00:56:00;;;;;;;1.50;1.40;;;20.30;69.10;;;;;;5124621;28;20224;-34
2021/04/11 00:58:26;;;;;;;1.15;1.08;;;20.30;69.10;;;;;;5105932;28;20031;-34
2021/04/11 01:00:53;;;;;;;1.27;1.17;;;20.30;69.00;;;;;;5105719;28;20023;-34
2021/04/11 01:03:21;;;;;;;2.03;1.33;;;20.30;69.00;;;;;;5124310;28;20043;-38
2021/04/11 01:05:47;;;;;;;1.45;1.35;;;20.30;69.00;;;;;;5124240;28;20028;-34
2021/04/11 01:08:15;;;;;;;1.50;1.40;;;20.30;68.90;;;;;;5105897;28;20031;-34
2021/04/11 01:11:15;;;;;;;1.52;1.42;;;20.30;68.90;;;;;;5127064;27;20043;-34
2021/04/11 01:13:45;;;;;;;1.33;1.23;;;20.30;68.80;;;;;;5079220;28;20055;-34
2021/04/11 01:16:12;;;;;;;1.60;1.50;;;20.30;68.80;;;;;;5085612;28;20031;-34
2021/04/11 01:18:40;;;;;;;1.58;1.48;;;20.30;68.70;;;;;;5085457;28;20024;-34
2021/04/11 01:21:47;;;;;;;2.10;1.52;;;20.30;68.70;;;;;;5085198;28;20032;-34
2021/04/11 01:24:40;;;;;;;1.30;1.20;;;20.30;68.70;;;;;;5086208;28;20122;-34
2021/04/11 01:27:07;;;;;;;1.40;1.30;;;20.30;68.60;;;;;;5085442;27;20043;-34
2021/04/11 01:29:33;;;;;;;1.38;1.27;;;20.30;68.50;;;;;;5105596;28;20048;-34
2021/04/11 01:31:59;;;;;;;1.50;1.40;;;20.30;68.50;;;;;;5088671;28;20119;-35
2021/04/11 01:34:27;;;;;;;1.65;1.40;;;20.30;68.40;;;;;;5123712;28;20087;-34
2021/04/11 01:36:53;;;;;;;1.42;1.33;;;20.30;68.30;;;;;;5105467;28;20039;-34
2021/04/11 01:39:27;;;;;;;1.42;1.20;;;20.20;68.20;;;;;;5105431;28;20575;-34
2021/04/11 01:41:53;;;;;;;1.42;1.33;;;20.20;68.10;;;;;;5094208;28;20049;-35
2021/04/11 01:44:28;;;;;;;1.30;1.20;;;20.20;68.10;;;;;;5085175;28;20058;-34
2021/04/11 01:46:54;;;;;;;1.50;1.40;;;20.20;68.20;;;;;;5085365;28;20768;-34
2021/04/11 01:49:21;;;;;;;1.50;1.40;;;20.20;68.30;;;;;;5103035;28;20457;-34
2021/04/11 01:51:50;;;;;;;1.40;1.30;;;20.20;68.20;;;;;;5085098;28;20071;-34
2021/04/11 01:54:18;;;;;;;1.30;1.20;;;20.20;68.20;;;;;;5101731;28;20059;-34
2021/04/11 01:56:45;;;;;;;1.25;1.15;;;20.20;68.10;;;;;;5084399;28;20561;-34
2021/04/11 01:59:23;;;;;;;1.50;1.30;;;20.10;68.00;;;;;;5084854;28;20265;-33
2021/04/11 02:01:49;;;;;;;1.45;1.35;;;20.10;67.90;;;;;;5084742;28;20036;-34
2021/04/11 02:04:15;;;;;;;1.30;1.20;;;20.10;67.90;;;;;;5102234;28;20070;-34
2021/04/11 02:06:46;;;;;;;1.35;1.25;;;20.10;67.90;;;;;;5102660;28;20030;-34
2021/04/11 02:09:19;;;;;;;1.40;1.30;;;20.10;67.80;;;;;;5085335;28;20050;-34
2021/04/11 02:11:46;;;;;;;1.23;1.15;;;20.10;67.80;;;;;;5110813;28;20039;-34
2021/04/11 02:14:12;;;;;;;1.38;1.27;;;20.10;67.70;;;;;;5104598;28;20019;-34
2021/04/11 02:16:38;;;;;;;1.83;1.40;;;20.10;67.70;;;;;;5104706;28;20455;-34
2021/04/11 02:19:12;;;;;;;1.40;1.30;;;20.00;67.70;;;;;;5122981;28;20091;-34
2021/04/11 02:21:38;;;;;;;1.27;1.17;;;20.00;67.70;;;;;;5104606;28;20050;-36
2021/04/11 02:24:07;;;;;;;1.23;1.10;;;20.00;67.70;;;;;;5086049;28;20050;-33
2021/04/11 02:26:34;;;;;;;1.30;1.20;;;20.00;67.70;;;;;;5100913;28;20028;-33
2021/04/11 02:29:03;;;;;;;1.30;1.20;;;20.00;67.80;;;;;;5100733;28;20078;-34
2021/04/11 02:31:30;;;;;;;1.38;1.27;;;20.00;67.70;;;;;;5100671;28;20024;-34
2021/04/11 02:34:29;;;;;;;1.08;1.08;;;20.00;67.70;;;;;;5102545;28;20031;-34
2021/04/11 02:36:56;;;;;;;;;;;20.00;67.70;;;;;;5039674;28;20053;-34
2021/04/11 02:39:24;;;;;;;1.40;1.30;;;19.90;67.70;;;;;;5024814;28;19931;-34
2021/04/11 02:41:51;;;;;;;1.23;1.13;;;19.90;67.70;;;;;;5042616;28;20038;-34
2021/04/11 02:44:17;;;;;;;1.38;1.25;;;19.90;67.60;;;;;;5042655;28;20025;-34
2021/04/11 02:46:43;;;;;;;1.50;1.40;;;19.90;67.60;;;;;;5059718;28;20037;-34
2021/04/11 02:49:11;;;;;;;1.40;1.30;;;19.90;67.60;;;;;;5042431;28;20627;-34
2021/04/11 02:51:38;;;;;;;1.60;1.35;;;19.90;68.20;;;;;;5042858;28;20052;-34
2021/04/11 02:54:05;;;;;;;1.33;1.23;;;19.90;67.50;;;;;;5057715;28;20092;-34
2021/04/11 02:56:32;;;;;;;1.27;1.17;;;19.90;67.40;;;;;;5042936;28;20037;-34
2021/04/11 02:58:58;;;;;;;1.30;1.20;;;19.90;67.50;;;;;;5041970;28;20032;-34
2021/04/11 03:01:34;;;;;;;1.20;1.10;;;19.80;67.50;;;;;;5042568;28;20040;-34
2021/04/11 03:04:01;;;;;;;1.20;1.10;;;19.80;67.50;;;;;;5041203;28;20041;-34
2021/04/11 03:06:37;;;;;;;1.20;1.10;;;19.80;67.50;;;;;;5042257;28;20077;-34
2021/04/11 03:09:06;;;;;;;1.10;1.00;;;19.80;67.60;;;;;;5027012;28;20041;-34
2021/04/11 03:11:47;;;;;;;1.83;0.98;;;19.80;67.50;;;;;;5045411;28;20052;-34
2021/04/11 03:14:14;;;;;;;1.15;1.05;;;19.80;67.40;;;;;;5107574;28;20020;-34
2021/04/11 03:16:41;;;;;;;1.30;1.10;;;19.80;67.50;;;;;;5107007;28;20035;-34
2021/04/11 03:19:07;;;;;;;1.08;0.98;;;19.80;67.60;;;;;;5090787;28;20073;-34
2021/04/11 03:21:38;;;;;;;1.15;1.10;;;19.70;67.40;;;;;;5108100;28;20035;-34
2021/04/11 03:24:04;;;;;;;1.23;1.10;;;19.70;67.40;;;;;;5108746;28;20027;-33
2021/04/11 03:26:51;;;;;;;1.03;1.00;;;19.70;67.40;;;;;;5107890;28;20016;-34
2021/04/11 03:29:19;;;;;;;1.10;1.00;;;19.70;67.50;;;;;;5110181;28;20023;-34
2021/04/11 03:31:55;;;;;;;1.30;1.20;;;19.70;67.40;;;;;;5107965;28;20076;-34
2021/04/11 03:34:21;;;;;;;1.30;1.13;;;19.70;67.40;;;;;;5116918;27;20027;-34
2021/04/11 03:36:47;;;;;;;1.15;1.05;;;19.70;67.40;;;;;;5111373;27;20148;-34
2021/04/11 03:39:13;;;;;;;1.25;1.15;;;19.70;67.40;;;;;;5145729;27;20038;-34
2021/04/11 03:41:39;;;;;;;1.27;1.17;;;19.60;67.40;;;;;;5107613;28;20047;-34
2021/04/11 03:44:07;;;;;;;1.10;1.10;;;19.60;67.40;;;;;;5125833;28;20048;-34
2021/04/11 03:46:37;;;;;;;1.25;1.10;;;19.60;67.50;;;;;;5107515;28;20056;-35
2021/04/11 03:49:10;;;;;;;2.05;1.13;;;19.60;67.40;;;;;;5106996;28;20113;-34
2021/04/11 03:51:38;;;;;;;1.10;1.00;;;19.60;67.40;;;;;;5125769;28;20030;-34
2021/04/11 03:54:21;;;;;;;1.27;1.17;;;19.60;67.50;;;;;;5088582;28;20476;-34
2021/04/11 03:56:56;;;;;;;1.40;1.30;;;19.60;67.40;;;;;;5086850;28;20024;-34
2021/04/11 03:59:26;;;;;;;3.15;1.63;;;19.50;67.50;;;;;;5087641;28;20028;-33
2021/04/11 04:01:54;;;;;;;2.55;1.20;;;19.50;67.40;;;;;;5086749;28;20064;-34
2021/04/11 04:04:22;;;;;;;0.95;0.90;;;19.50;67.40;;;;;;5104635;27;20030;-34
2021/04/11 04:07:00;;;;;;;1.48;1.25;;;19.50;67.40;;;;;;5110864;27;20034;-34
2021/04/11 04:09:27;;;;;;;1.15;1.05;;;19.50;67.50;;;;;;5143255;27;20033;-34
2021/04/11 04:12:22;;;;;;;1.00;1.00;;;19.50;67.40;;;;;;5127773;27;20808;-34
2021/04/11 04:15:13;;;;;;;1.40;1.30;;;19.50;67.50;;;;;;5022011;28;20045;-33
2021/04/11 04:18:16;;;;;;;1.40;1.20;;;19.50;67.40;;;;;;5022059;28;20387;-34
2021/04/11 04:21:08;;;;;;;1.27;1.00;;;19.40;67.40;;;;;;5021899;28;20030;-34
2021/04/11 04:24:11;;;;;;;1.20;1.10;;;19.40;67.40;;;;;;5021719;28;20030;-35
2021/04/11 04:26:52;;;;;;;1.02;1.02;;;19.40;67.50;;;;;;5020321;28;20044;-34
2021/04/11 04:29:30;;;;;;;1.17;1.10;;;19.40;67.50;;;;;;5004956;28;20022;-34
2021/04/11 04:32:05;;;;;;;1.98;1.38;;;19.30;67.50;;;;;;5005304;28;20076;-34
2021/04/11 04:34:39;;;;;;;1.08;0.98;;;19.30;67.60;;;;;;5021465;28;20022;-34
2021/04/11 04:37:24;;;;;;;2.42;0.90;;;19.30;67.50;;;;;;5006372;28;20034;-34
2021/04/11 04:40:09;;;;;;;1.08;0.98;;;19.30;67.50;;;;;;5005096;28;20030;-34
2021/04/11 04:42:59;;;;;;;1.25;1.15;;;19.30;67.40;;;;;;5021218;28;20038;-34
2021/04/11 04:45:33;;;;;;;1.15;1.08;;;19.30;67.40;;;;;;5021463;28;20955;-34
2021/04/11 04:48:18;;;;;;;1.70;1.10;;;19.20;67.50;;;;;;5021434;28;20077;-34
2021/04/11 04:50:53;;;;;;;1.02;1.00;;;19.20;67.60;;;;;;5041872;28;20122;-34
2021/04/11 04:53:29;;;;;;;1.23;1.10;;;19.20;67.50;;;;;;5099539;28;20031;-34
2021/04/11 04:55:57;;;;;;;1.10;1.00;;;19.20;67.50;;;;;;5124692;28;20448;-34
2021/04/11 04:58:31;;;;;;;1.27;1.10;;;19.20;67.50;;;;;;5105693;28;20028;-34
2021/04/11 05:01:19;;;;;;;1.40;1.30;;;19.20;67.60;;;;;;5105812;28;20039;-34
2021/04/11 05:03:46;;;;;;;1.00;1.00;;;19.20;67.50;;;;;;5109878;27;20019;-33
2021/04/11 05:06:22;;;;;;;1.38;1.00;;;19.20;67.60;;;;;;5109353;27;20023;-34
2021/04/11 05:08:49;;;;;;;1.20;1.10;;;19.20;67.50;;;;;;5110149;27;20031;-34
2021/04/11 05:11:26;;;;;;;1.25;1.00;;;19.20;67.50;;;;;;5109205;27;20106;-33
2021/04/11 05:14:00;;;;;;;1.90;1.05;;;19.20;67.50;;;;;;5082989;28;20020;-34
2021/04/11 05:16:37;;;;;;;1.60;1.25;;;19.10;67.50;;;;;;5065733;28;20035;-33
2021/04/11 05:19:26;;;;;;;1.45;1.20;;;19.10;67.50;;;;;;5082014;28;20453;-33
2021/04/11 05:21:58;;;;;;;1.00;1.00;;;19.10;67.40;;;;;;5080321;28;20037;-34
2021/04/11 05:24:31;;;;;;;1.30;1.20;;;19.10;67.40;;;;;;5081803;28;20039;-34
2021/04/11 05:27:09;;;;;;;1.02;0.95;;;19.10;67.30;;;;;;5083287;28;20049;-34
2021/04/11 05:29:40;;;;;;;1.23;1.13;;;19.10;67.30;;;;;;5065975;28;20123;-34
2021/04/11 05:32:06;;;;;;;1.25;1.15;;;19.10;67.40;;;;;;5081660;28;20033;-34
2021/04/11 05:34:32;;;;;;;1.30;1.20;;;19.10;67.30;;;;;;5061320;28;20672;-34
2021/04/11 05:37:09;;;;;;;1.23;1.13;;;19.00;67.30;;;;;;5079257;28;20025;-34
2021/04/11 05:39:39;;;;;;;1.73;1.25;;;19.00;67.40;;;;;;5064179;28;20024;-34
2021/04/11 05:42:21;;;;;;;2.15;1.10;;;19.00;67.50;;;;;;5082652;28;20508;-33
2021/04/11 05:44:58;;;;;;;1.10;1.00;;;19.00;67.60;;;;;;5081521;28;20019;-34
2021/04/11 05:47:55;;;;;;;1.35;1.13;;;19.00;67.50;;;;;;5081445;28;20035;-34
2021/04/11 05:50:28;;;;;;;1.02;1.02;;;19.00;67.40;;;;;;5081460;28;20066;-34
2021/04/11 05:53:10;;;;;;;1.25;1.10;;;18.90;67.50;;;;;;5072253;28;20040;-34
2021/04/11 05:55:38;;;;;;;1.13;0.88;;;18.90;67.40;;;;;;5062768;28;20033;-33
2021/04/11 05:58:15;;;;;;;1.30;1.10;;;18.90;67.40;;;;;;5061177;28;20064;-34
2021/04/11 06:01:15;;;;;;;1.48;1.30;;;18.90;67.40;;;;;;5061137;28;20028;-34
2021/04/11 06:03:48;;;;;;;1.27;1.17;;;18.90;67.30;;;;;;5064550;28;20044;-34
2021/04/11 06:06:22;;;;;;;1.23;1.10;;;18.90;67.30;;;;;;5064881;28;20028;-34
2021/04/11 06:09:45;;;;;;;1.30;1.20;;;18.90;67.30;;;;;;5082701;28;20048;-33
2021/04/11 06:12:23;;;;;;;0.90;0.90;;;18.90;67.30;;;;;;4985728;28;20059;-34
2021/04/11 06:14:49;;;;;;;;;;;18.90;67.40;;;;;;4982995;28;20183;-33
2021/04/11 06:17:15;;;;;;;1.17;1.08;;;18.80;67.40;;;;;;5000341;28;19933;-33
2021/04/11 06:19:45;;;;;;;1.85;0.95;;;18.80;67.60;;;;;;4967861;28;20053;-33
2021/04/11 06:22:40;;;;;;;1.38;1.20;;;18.80;67.60;;;;;;4983772;28;20038;-34
2021/04/11 06:25:37;;;;;;;1.70;1.10;;;18.80;67.50;;;;;;4984017;28;20082;-34
2021/04/11 06:28:42;;;;;;;0.98;0.90;;;18.70;67.50;;;;;;4983872;28;20035;-34
2021/04/11 06:31:11;;;;;;;1.20;1.10;;;18.70;67.40;;;;;;4984095;28;20039;-34
2021/04/11 06:33:39;;;;;;;1.20;1.10;;;18.70;67.50;;;;;;4983860;28;20536;-34
2021/04/11 06:36:10;;;;;;;1.98;1.10;;;18.70;67.60;;;;;;4983689;28;20045;-34
2021/04/11 06:38:42;;;;;;;1.60;1.17;;;18.70;67.40;;;;;;5000293;28;20038;-33
2021/04/11 06:41:20;;;;;;;1.20;1.02;;;18.70;67.40;;;;;;4999780;28;20034;-34
2021/04/11 06:44:01;;;;;;;1.63;1.20;;;18.70;67.50;;;;;;5051503;28;20070;-34
2021/04/11 06:47:12;;;;;;;1.58;1.20;;;18.70;67.50;;;;;;5060883;28;20029;-33
2021/04/11 06:49:47;;;;;;;1.45;1.35;;;18.70;67.50;;;;;;5046592;28;20675;-33
2021/04/11 06:52:32;;;;;;;1.30;1.20;;;18.70;67.50;;;;;;5068867;28;20028;-34
2021/04/11 06:55:32;;;;;;;1.00;1.00;;;18.70;67.50;;;;;;5069396;28;20699;-33
2021/04/11 06:58:26;;;;;;;1.15;1.05;;;18.60;67.40;;;;;;5082096;28;20033;-33
2021/04/11 07:01:10;;;;;;;2.28;1.20;;;18.60;67.50;;;;;;5085966;28;20032;-34
2021/04/11 07:03:55;;;;;;;1.35;1.10;;;18.60;67.60;;;;;;5088508;28;20033;-34
2021/04/11 07:06:43;;;;;;;1.20;1.10;;;18.60;67.50;;;;;;5106317;28;20100;-33
2021/04/11 07:09:12;;;;;;;1.40;1.30;;;18.60;67.60;;;;;;5106333;28;20039;-34
2021/04/11 07:11:48;;;;;;;1.08;1.00;;;18.50;67.60;;;;;;5097002;28;20056;-34
2021/04/11 07:14:52;;;;;;;3.30;1.15;;;18.60;67.50;;;;;;5106060;28;20110;-33
2021/04/11 07:17:27;;;;;;;1.45;1.23;;;18.50;67.50;;;;;;5143936;27;20487;-34
2021/04/11 07:20:28;;;;;;;1.20;1.10;;;18.50;67.60;;;;;;5129175;27;20047;-34
2021/04/11 07:23:20;;;;;;;1.27;1.10;;;18.50;67.60;;;;;;5106153;28;20069;-34
2021/04/11 07:25:52;;;;;;;1.10;1.00;;;18.50;67.60;;;;;;5108243;28;20034;-34
2021/04/11 07:28:18;;;;;;;1.30;1.20;;;18.50;67.60;;;;;;5126108;28;20023;-34
2021/04/11 07:30:49;;;;;;;1.45;1.10;;;18.50;67.60;;;;;;5126302;28;20027;-35
2021/04/11 07:33:37;;;;;;;1.20;1.00;;;18.40;67.60;;;;;;5107718;28;20061;-33
2021/04/11 07:36:25;;;;;;;1.20;1.10;;;18.40;67.50;;;;;;5105502;28;20024;-33
2021/04/11 07:39:03;;;;;;;1.00;0.87;;;18.40;67.60;;;;;;5087477;28;20028;-34
2021/04/11 07:41:36;;;;;;;1.23;1.13;;;18.40;67.50;;;;;;5124931;28;20766;-33
2021/04/11 07:44:31;;;;;;;2.03;1.00;;;18.40;67.60;;;;;;5109924;28;20041;-34
2021/04/11 07:47:19;;;;;;;1.50;1.20;;;18.40;67.60;;;;;;5110364;28;20030;-34
2021/04/11 07:50:26;;;;;;;1.23;1.13;;;18.30;67.60;;;;;;5091920;28;20027;-34
2021/04/11 07:53:07;;;;;;;1.63;1.13;;;18.40;67.60;;;;;;5105975;28;20031;-34
2021/04/11 07:55:51;;;;;;;1.20;1.10;;;18.30;67.50;;;;;;5107745;28;20030;-34
2021/04/11 07:58:27;;;;;;;1.42;1.17;;;18.30;67.40;;;;;;5125564;28;20077;-34
2021/04/11 08:01:04;;;;;;;1.25;1.15;;;18.30;67.50;;;;;;5108352;28;20030;-34
2021/04/11 08:03:55;;;;;;;1.10;1.00;;;18.30;67.50;;;;;;5108634;27;20039;-33
2021/04/11 08:06:46;;;;;;;1.08;0.90;;;18.30;67.50;;;;;;5136441;27;20032;-33
2021/04/11 08:09:28;;;;;;;1.20;1.10;;;18.30;67.50;;;;;;5107335;28;20032;-33
2021/04/11 08:12:15;;;;;;;1.10;1.00;;;18.30;67.60;;;;;;5124864;28;20048;-36
2021/04/11 08:14:44;;;;;;;1.20;1.10;;;18.30;67.60;;;;;;5106566;28;20053;-33
2021/04/11 08:17:32;;;;;;;1.10;1.00;;;18.30;67.60;;;;;;5107079;28;20053;-33
2021/04/11 08:20:07;;;;;;;0.63;0.63;;;18.30;67.50;;;;;;5125336;28;20028;-33
2021/04/11 08:22:54;;;;;;;1.70;1.25;;;18.20;67.60;;;;;;5131338;27;20077;-33
2021/04/11 08:25:41;;;;;;;1.17;1.08;;;18.20;67.50;;;;;;5145920;27;20027;-33
2021/04/11 08:28:25;;;;;;;1.23;0.98;;;18.20;67.60;;;;;;5129067;27;20027;-33
2021/04/11 08:31:07;;;;;;;1.85;1.05;;;18.20;67.60;;;;;;5128225;27;20035;-33
2021/04/11 08:34:10;;;;;;;1.15;0.90;;;18.20;67.60;;;;;;5143417;27;20130;-33
2021/04/11 08:36:55;;;;;;;1.17;1.08;;;18.20;67.70;;;;;;5124698;28;20028;-33
2021/04/11 08:39:53;;;;;;;1.25;1.15;;;18.20;67.70;;;;;;5124836;28;20031;-33
2021/04/11 08:42:24;;;;;;;1.00;1.00;;;18.20;67.70;;;;;;5124514;28;20050;-33
2021/04/11 08:45:06;;;;;;;1.30;1.00;;;18.10;67.60;;;;;;5106398;28;20020;-33
2021/04/11 08:47:52;;;;;;;1.63;0.93;;;18.10;67.60;;;;;;5106995;28;20016;-33
2021/04/11 08:50:18;;;;;;;1.70;0.90;;;18.10;67.70;;;;;;5106401;28;20437;-33
2021/04/11 08:52:49;;;;;;;1.02;0.93;;;18.10;67.70;;;;;;5116629;28;20039;-33
2021/04/11 08:55:41;;;;;;;1.02;1.00;;;18.10;67.60;;;;;;5086125;28;20431;-35
2021/04/11 08:58:19;;;;;;;2.17;0.98;;;18.20;67.60;;;;;;5086074;28;20024;-33
2021/04/11 09:01:25;;;;;;;1.40;0.80;;;18.10;67.50;;;;;;5104039;28;20028;-33
2021/04/11 09:03:58;;;;;;;1.38;0.93;;;18.10;67.50;;;;;;5065228;28;20060;-34
2021/04/11 09:06:35;;;;;;;1.00;0.90;;;18.10;67.60;;;;;;5064355;28;20036;-34
2021/04/11 09:09:33;;;;;;;1.10;1.00;;;18.10;67.60;;;;;;5064267;28;20044;-33
2021/04/11 09:12:11;;;;;;;1.20;1.10;;;18.10;67.50;;;;;;5060915;28;20055;-33
2021/04/11 09:14:37;;;;;;;;;;;18.10;67.60;;;;;;5060944;28;20280;-34
2021/04/11 09:17:24;;;;;;;1.23;1.02;;;18.10;67.60;;;;;;5060992;28;19944;-33
2021/04/11 09:20:08;;;;;;;1.10;1.00;;;18.00;67.80;;;;;;5060937;28;20060;-33
2021/04/11 09:22:39;;;;;;;1.02;0.95;;;18.00;67.70;;;;;;5065609;28;20060;-33
2021/04/11 09:25:27;;;;;;;1.08;0.98;;;18.00;67.60;;;;;;5064070;28;20036;-34
2021/04/11 09:28:05;;;;;;;2.43;0.90;;;18.00;67.50;;;;;;5080458;28;20051;-33
2021/04/11 09:30:43;;;;;;;0.95;0.82;;;18.00;67.60;;;;;;5080551;28;20265;-33
2021/04/11 09:33:32;;;;;;;1.00;0.90;;;18.00;67.60;;;;;;5080217;28;20059;-33
2021/04/11 09:36:17;;;;;;;1.02;0.93;;;18.00;67.70;;;;;;5045519;28;20033;-34
2021/04/11 09:38:55;;;;;;;1.50;0.98;;;18.00;67.70;;;;;;5080570;28;20044;-34
2021/04/11 09:41:43;;;;;;;1.38;1.10;;;18.00;67.70;;;;;;5122071;28;20031;-33
2021/04/11 09:44:24;;;;;;;1.20;1.10;;;17.90;67.70;;;;;;5126342;27;20035;-33
2021/04/11 09:47:08;;;;;;;1.10;0.95;;;17.90;67.60;;;;;;5144377;27;20053;-34
2021/04/11 09:49:49;;;;;;;1.40;0.95;;;18.00;67.60;;;;;;5126142;27;20043;-34
2021/04/11 09:52:24;;;;;;;1.35;1.10;;;17.90;67.60;;;;;;5121691;28;20548;-34
2021/04/11 09:55:12;;;;;;;1.00;0.90;;;18.00;67.70;;;;;;5123279;28;20077;-34
2021/04/11 09:58:16;;;;;;;1.10;1.00;;;17.90;67.60;;;;;;5123571;28;20028;-33
2021/04/11 10:00:43;;;;;;;1.23;0.90;;;17.90;67.60;;;;;;5126714;27;20095;-33
2021/04/11 10:03:58;;;;;;;1.35;1.00;;;17.90;67.60;;;;;;5125228;27;20039;-34
2021/04/11 10:07:14;;;;;;;1.20;1.08;;;18.00;67.70;;;;;;5097425;28;20058;-33
2021/04/11 10:09:55;;;;;;;1.05;1.00;;;17.90;67.60;;;;;;5039792;28;20049;-33
2021/04/11 10:12:48;;;;;;;1.00;0.90;;;17.90;67.60;;;;;;5039774;28;20061;-34
2021/04/11 10:15:34;;;;;;;1.00;0.90;;;17.90;67.60;;;;;;5054826;28;20021;-34
2021/04/11 10:18:12;;;;;;;1.90;1.00;;;17.90;67.60;;;;;;5010026;28;20030;-34
2021/04/11 10:20:44;;;;;;;;;;;17.90;67.60;;;;;;5040255;28;20038;-34
2021/04/11 10:23:47;;;;;;;1.20;1.00;;;17.90;67.60;;;;;;5034219;28;19912;-34
2021/04/11 10:26:24;;;;;;;1.40;0.98;;;17.90;67.70;;;;;;5059080;28;20067;-34
2021/04/11 10:29:01;;;;;;;1.20;1.10;;;17.80;67.70;;;;;;5091808;28;20100;-33
2021/04/11 10:31:42;;;;;;;1.92;1.00;;;17.80;67.70;;;;;;5091438;28;20253;-33
2021/04/11 10:34:22;;;;;;;1.00;0.90;;;17.80;67.70;;;;;;5059414;28;20049;-34
2021/04/11 10:37:07;;;;;;;0.90;0.90;;;17.80;67.80;;;;;;5042761;28;20032;-34
2021/04/11 10:39:39;;;;;;;1.13;0.90;;;17.80;67.80;;;;;;5028489;28;20057;-34
2021/04/11 10:42:17;;;;;;;1.10;1.00;;;17.90;67.80;;;;;;5058811;28;20532;-33
2021/04/11 10:44:52;;;;;;;0.90;0.90;;;17.90;67.90;;;;;;5062133;28;20031;-34
2021/04/11 10:47:44;;;;;;;0.98;0.88;;;17.80;67.70;;;;;;5102749;28;20031;-33
2021/04/11 10:50:33;;;;;;;0.90;0.80;;;17.90;67.70;;;;;;5084495;28;20113;-33
2021/04/11 10:53:22;;;;;;;1.17;1.08;;;17.80;67.60;;;;;;5096832;28;20020;-34
2021/04/11 10:56:09;;;;;;;1.00;0.90;;;17.80;67.70;;;;;;5121830;28;20042;-33
2021/04/11 10:58:44;;;;;;;1.23;0.90;;;17.80;67.70;;;;;;5107286;28;20020;-34
2021/04/11 11:01:46;;;;;;;1.00;0.90;;;17.80;67.80;;;;;;5122689;28;20028;-33
2021/04/11 11:04:21;;;;;;;1.00;0.90;;;17.80;67.80;;;;;;5106900;28;20028;-34
2021/04/11 11:07:15;;;;;;;1.45;1.10;;;17.80;67.80;;;;;;5122589;28;20024;-34
2021/04/11 11:09:51;;;;;;;1.15;0.98;;;17.80;67.70;;;;;;5122784;28;20092;-33
2021/04/11 11:12:35;;;;;;;1.02;0.93;;;17.70;67.70;;;;;;5124560;28;20050;-34
2021/04/11 11:15:28;;;;;;;0.82;0.82;;;17.70;67.80;;;;;;5121936;28;20502;-33
2021/04/11 11:18:05;;;;;;;1.10;1.00;;;17.70;67.90;;;;;;5107156;28;20032;-33
2021/04/11 11:20:41;;;;;;;1.27;1.10;;;17.70;67.80;;;;;;5104373;28;20076;-33
2021/04/11 11:23:22;;;;;;;1.13;1.00;;;17.80;67.90;;;;;;5104329;28;20864;-34
2021/04/11 11:26:03;;;;;;;1.20;1.10;;;17.80;67.90;;;;;;5122295;28;20027;-33
2021/04/11 11:28:33;;;;;;;0.80;0.80;;;17.80;67.80;;;;;;5137522;28;20031;-34
2021/04/11 11:31:31;;;;;;;1.58;1.00;;;17.70;67.80;;;;;;5124578;28;20028;-37
2021/04/11 11:34:21;;;;;;;1.75;1.00;;;17.70;67.80;;;;;;5124516;28;20016;-33
2021/04/11 11:37:03;;;;;;;1.10;0.95;;;17.70;67.80;;;;;;5110609;27;20027;-34
2021/04/11 11:39:49;;;;;;;1.10;1.00;;;17.70;67.90;;;;;;5126077;27;20031;-33
2021/04/11 11:42:23;;;;;;;1.38;1.00;;;17.60;67.80;;;;;;5087133;28;20032;-34
2021/04/11 11:45:10;;;;;;;1.10;1.00;;;17.60;67.90;;;;;;5087059;28;20024;-33
2021/04/11 11:47:49;;;;;;;0.93;0.82;;;17.60;67.80;;;;;;5111968;27;20031;-34
2021/04/11 11:50:20;;;;;;;0.90;0.90;;;17.60;67.90;;;;;;5146687;27;20084;-33
2021/04/11 11:53:17;;;;;;;1.10;1.00;;;17.70;67.90;;;;;;5103578;28;20142;-34
2021/04/11 11:56:10;;;;;;;1.20;1.08;;;17.60;67.80;;;;;;5121968;28;20039;-38
2021/04/11 11:58:52;;;;;;;0.88;0.85;;;17.70;67.90;;;;;;5114406;28;20065;-34
2021/04/11 12:01:44;;;;;;;1.77;1.00;;;17.60;67.90;;;;;;5109708;28;20023;-34
2021/04/11 12:04:30;;;;;;;0.90;0.80;;;17.60;67.90;;;;;;5094105;28;20642;-33
2021/04/11 12:06:56;;;;;;;1.05;0.95;;;17.60;67.80;;;;;;5107216;28;20083;-34
2021/04/11 12:09:27;;;;;;;1.47;0.80;;;17.60;67.80;;;;;;5110174;28;20020;-33
2021/04/11 12:12:02;;;;;;;0.93;0.82;;;17.60;67.90;;;;;;5125406;27;20438;-33
2021/04/11 12:14:33;;;;;;;1.00;0.90;;;17.60;67.90;;;;;;5145922;27;20770;-34
2021/04/11 12:17:02;;;;;;;1.33;1.20;;;17.60;67.90;;;;;;5109659;28;20061;-33
2021/04/11 12:19:30;;;;;;;1.50;1.10;;;17.60;67.90;;;;;;5125520;28;20027;-33
2021/04/11 12:22:04;;;;;;;1.05;0.98;;;17.60;67.90;;;;;;5105898;28;20061;-33
2021/04/11 12:24:37;;;;;;;2.17;1.25;;;17.60;67.90;;;;;;5104994;28;20581;-33
2021/04/11 12:27:04;;;;;;;1.58;0.90;;;17.60;68.00;;;;;;5120169;28;20020;-33
2021/04/11 12:29:31;;;;;;;;;;;17.50;67.90;;;;;;5120764;28;20016;-34
2021/04/11 12:32:00;;;;;;;1.00;0.90;;;17.60;68.00;;;;;;5104861;28;19908;-33
2021/04/11 12:34:35;;;;;;;1.17;1.08;;;17.50;68.00;;;;;;5104757;28;20035;-34
2021/04/11 12:37:28;;;;;;;1.30;1.10;;;17.50;67.90;;;;;;5104374;28;20039;-34
2021/04/11 12:40:15;;;;;;;0.82;0.82;;;17.50;67.80;;;;;;5128599;27;20047;-34
2021/04/11 12:43:00;;;;;;;1.13;1.02;;;17.60;67.80;;;;;;5112063;27;20046;-33
2021/04/11 12:45:41;;;;;;;1.35;1.00;;;17.60;67.80;;;;;;5128829;27;20039;-33
2021/04/11 12:48:11;;;;;;;1.42;1.20;;;17.60;67.80;;;;;;5109716;27;20035;-33
2021/04/11 12:50:44;;;;;;;1.63;1.00;;;17.60;67.70;;;;;;5127007;27;20046;-33
2021/04/11 12:53:42;;;;;;;1.40;1.02;;;17.60;67.70;;;;;;5115567;28;20028;-33
2021/04/11 12:56:12;;;;;;;1.20;1.10;;;17.60;67.70;;;;;;5124461;28;20034;-34
2021/04/11 12:59:00;;;;;;;1.30;1.20;;;17.60;67.70;;;;;;5106445;28;20030;-33
2021/04/11 13:01:43;;;;;;;1.08;0.98;;;17.50;67.70;;;;;;5106274;28;20081;-33
2021/04/11 13:04:29;;;;;;;1.15;1.05;;;17.50;67.80;;;;;;5106285;28;20032;-34
2021/04/11 13:07:14;;;;;;;1.02;0.90;;;17.60;67.90;;;;;;5106111;28;20023;-34
2021/04/11 13:09:55;;;;;;;2.10;1.25;;;17.50;67.80;;;;;;5120236;28;20035;-33
2021/04/11 13:12:29;;;;;;;1.15;1.05;;;17.50;67.80;;;;;;5122481;28;20071;-34
2021/04/11 13:15:17;;;;;;;1.15;1.00;;;17.50;68.60;;;;;;5106306;28;20020;-34
2021/04/11 13:17:52;;;;;;;1.17;0.98;;;17.60;67.90;;;;;;5124381;28;20106;-33
2021/04/11 13:20:43;;;;;;;1.10;1.00;;;17.50;67.80;;;;;;5124490;28;20031;-34
2021/04/11 13:23:28;;;;;;;1.05;0.98;;;17.60;67.80;;;;;;5066717;27;20078;-33
2021/04/11 13:26:15;;;;;;;1.30;1.20;;;17.60;67.70;;;;;;5102522;28;20028;-33
2021/04/11 13:28:54;;;;;;;1.17;1.05;;;17.60;67.70;;;;;;5102288;28;20036;-34
2021/04/11 13:31:43;;;;;;;2.03;1.30;;;17.60;67.60;;;;;;5102066;28;20023;-33
2021/04/11 13:34:29;;;;;;;2.38;1.23;;;17.60;67.60;;;;;;5102497;28;20020;-33
2021/04/11 13:36:56;;;;;;;1.35;1.05;;;17.60;67.60;;;;;;5092709;28;20032;-33
2021/04/11 13:39:23;;;;;;;1.20;1.10;;;17.60;67.70;;;;;;5105827;27;20028;-33
2021/04/11 13:42:08;;;;;;;1.17;1.08;;;17.60;67.70;;;;;;5107607;28;20027;-34
2021/04/11 13:45:03;;;;;;;1.50;1.30;;;17.60;67.80;;;;;;5126511;27;20023;-34